Latest Weather Observations for Leigh Creek

IDS60801

Issued at 12:35 pm CDT Saturday 29 November 2014 (issued every 30 minutes, with the page automatically refreshed every 10 minutes)

About weather observations | Map of weather stations | Latest weather observations for SA | Other Formats
Station Details ID: 017110 Name: LEIGH CREEK AIRPORT Lat: -30.60 Lon: 138.42 Height: 258.8 m
Data from the previous 72 hours. | See also: Recent months at Leigh Creek
Date/Time
CDT
Temp
°C
App
Temp
°C
Dew
Point
Rel
Hum
%
Delta-T
°C
Wind Press
QNH
hPa
Press
MSL
hPa
Rain
since 9 am
mm
Dir
 
Spd
km/h
Gust
km/h
Spd
kts
Gust
kts
29/12:30pm 35.4 31.2 -0.8 10 17.9 N 11 20 6 11 1010.1 1008.9 0.0
29/12:00pm 35.8 31.1 -2.0 9 18.4 NW 13 20 7 11 1010.3 1009.1 0.0
29/11:30am 34.2 30.3 -1.7 10 17.4 S 9 19 5 10 1010.5 1009.3 0.0
29/11:00am 35.2 29.8 -1.0 10 17.8 N 17 24 9 13 1010.9 1009.7 0.0
29/10:30am 34.5 30.2 -1.5 10 17.5 NNW 11 24 6 13 1011.1 1009.9 0.0
29/10:00am 34.0 29.3 -1.9 10 17.3 ENE 13 22 7 12 1011.4 1010.2 0.0
29/09:30am 33.1 27.0 -4.0 9 17.1 NE 19 28 10 15 1011.6 1010.4 0.0
29/09:00am 32.1 24.6 -4.7 9 16.7 E 26 32 14 17 1011.7 1010.5 0.0
29/08:30am 30.8 22.0 -5.7 9 16.1 E 32 37 17 20 1011.9 1010.8 0.0
29/08:00am 29.2 20.1 -6.9 9 15.4 E 33 43 18 23 1012.1 1011.0 0.0
29/07:30am 27.7 20.0 -6.6 10 14.5 E 26 32 14 17 1012.0 1010.9 0.0
29/07:00am 24.9 18.1 -5.4 13 12.8 E 22 28 12 15 1011.8 1010.6 0.0
29/06:30am 24.4 17.5 -5.8 13 12.6 E 22 28 12 15 1011.6 1010.4 0.0
29/06:00am 23.8 17.0 -5.3 14 12.2 E 22 28 12 15 1011.5 1010.3 0.0
29/05:30am 24.0 16.7 -6.1 13 12.4 E 24 28 13 15 1011.3 1010.1 0.0
29/05:00am 23.7 17.8 -5.3 14 12.1 E 17 22 9 12 1011.2 1010.0 0.0
29/04:30am 23.5 19.1 -5.5 14 12.0 E 9 11 5 6 1011.3 1010.1 0.0
29/04:00am 24.2 19.1 -5.0 14 12.3 E 13 15 7 8 1011.3 1010.1 0.0
29/03:30am 24.7 18.8 -5.5 13 12.7 E 17 20 9 11 1011.3 1010.1 0.0
29/03:00am 25.1 19.2 -5.2 13 12.8 E 17 22 9 12 1011.3 1010.1 0.0
29/02:30am 25.2 19.4 -4.2 14 12.7 ESE 17 22 9 12 1011.3 1010.1 0.0
29/02:00am 24.5 19.6 -3.8 15 12.2 ESE 13 17 7 9 1011.7 1010.5 0.0
29/01:30am 24.4 19.4 -3.9 15 12.2 SE 13 17 7 9 1012.1 1011.0 0.0
29/01:00am 24.9 19.2 -3.5 15 12.4 ESE 17 19 9 10 1012.2 1011.1 0.0
29/12:30am 24.5 18.9 -2.9 16 12.1 ESE 17 19 9 10 1012.3 1011.2 0.0
29/12:00am 24.4 18.8 -3.0 16 12.0 ESE 17 20 9 11 1012.8 1011.6 0.0
 
Date/Time
CDT
Temp
°C
App
Temp
°C
Dew
Point
Rel
Hum
%
Delta-T
°C
Wind Press
QNH
hPa
Press
MSL
hPa
Rain
since 9 am
mm
Dir
 
Spd
km/h
Gust
km/h
Spd
kts
Gust
kts
28/11:30pm 24.7 19.5 -2.8 16 12.1 SE 15 19 8 10 1013.2 1012.0 0.0
28/11:00pm 25.0 20.6 -2.5 16 12.2 SE 11 13 6 7 1013.5 1012.3 0.0
28/10:30pm 26.2 22.6 -2.4 15 12.9 SE 7 11 4 6 1013.6 1012.4 0.0
28/10:00pm 27.3 23.3 -2.5 14 13.5 SE 9 11 5 6 1013.6 1012.4 0.0
28/09:30pm 28.8 24.4 -2.3 13 14.3 SE 11 15 6 8 1013.4 1012.2 0.0
28/09:00pm 29.7 24.1 -2.7 12 14.9 SE 17 24 9 13 1013.1 1011.9 0.0
28/08:30pm 30.3 22.7 -2.2 12 15.2 ESE 28 35 15 19 1012.7 1011.5 0.0
28/08:00pm 31.3 24.8 -2.6 11 15.8 ESE 22 33 12 18 1012.2 1011.1 0.0
28/07:30pm 32.5 28.0 -3.0 10 16.6 E 11 17 6 9 1012.0 1010.9 0.0
28/07:00pm 33.5 29.9 -2.3 10 17.1 SSE 7 13 4 7 1011.9 1010.8 0.0
28/06:30pm 34.0 29.7 -1.9 10 17.3 SSE 11 20 6 11 1011.9 1010.8 0.0
28/06:00pm 33.9 29.6 -2.0 10 17.2 ENE 11 15 6 8 1011.9 1010.8 0.0
28/05:30pm 33.5 29.9 -2.3 10 17.1 ESE 7 13 4 7 1012.2 1011.1 0.0
28/05:00pm 33.8 29.8 -2.0 10 17.2 ESE 9 19 5 10 1012.5 1011.3 0.0
28/04:30pm 34.7 29.7 -1.4 10 17.6 NE 15 22 8 12 1012.9 1011.7 0.0
28/04:00pm 33.6 28.6 -0.9 11 16.8 ESE 15 30 8 16 1013.3 1012.1 0.0
28/03:30pm 33.8 28.3 -2.0 10 17.2 S 17 24 9 13 1013.5 1012.3 0.0
28/03:00pm 33.2 29.0 -1.2 11 16.6 SE 11 26 6 14 1014.0 1012.8 0.0
28/02:30pm 33.9 29.3 -0.7 11 17.0 ESE 13 22 7 12 1014.4 1013.2 0.0
28/02:00pm 33.2 29.0 -1.2 11 16.7 E 11 22 6 12 1014.9 1013.7 0.0
28/01:30pm 32.7 27.4 -0.4 12 16.2 ENE 17 30 9 16 1015.3 1014.2 0.0
28/01:00pm 31.8 26.1 -1.1 12 15.8 ESE 19 28 10 15 1015.7 1014.6 0.0
28/12:30pm 31.7 25.9 -1.2 12 15.7 ENE 19 22 10 12 1016.2 1015.1 0.0
28/12:00pm 31.5 26.4 0.8 14 15.2 ESE 17 20 9 11 1016.6 1015.4 0.0
28/11:30am 31.0 25.4 1.4 15 14.7 ESE 20 33 11 18 1016.9 1015.7 0.0
28/11:00am 30.9 25.7 2.2 16 14.5 E 19 26 10 14 1017.3 1016.1 0.0
28/10:30am 29.6 23.4 2.0 17 13.7 E 24 35 13 19 1017.5 1016.3 0.0
28/10:00am 29.2 22.3 2.5 18 13.4 E 28 35 15 19 1017.5 1016.3 0.0
28/09:30am 28.7 21.0 3.5 20 12.8 E 33 41 18 22 1017.7 1016.5 0.0
28/09:00am 27.8 19.4 3.5 21 12.3 E 37 46 20 25 1017.8 1016.6 0.0
28/08:30am 27.2 19.6 3.7 22 11.9 E 33 46 18 25 1018.0 1016.8 0.0
28/08:00am 24.7 18.3 3.4 25 10.5 ESE 26 35 14 19 1018.0 1016.8 0.0
28/07:30am 24.1 18.5 3.4 26 10.2 ESE 22 30 12 16 1018.0 1016.8 0.0
28/07:00am 22.5 20.1 4.5 31 9.0 SE 6 9 3 5 1017.8 1016.6 0.0
28/06:30am 20.0 17.9 3.7 34 7.8 SSE 4 7 2 4 1017.4 1016.2 0.0
28/06:00am 20.7 17.7 3.9 33 8.2 SE 9 13 5 7 1017.0 1015.8 0.0
28/05:30am 20.3 16.4 3.5 33 8.1 ESE 13 19 7 10 1016.8 1015.6 0.0
28/05:00am 20.8 16.5 3.5 32 8.4 SE 15 17 8 9 1016.3 1015.2 0.0
28/04:30am 21.5 16.5 3.7 31 8.7 ESE 19 24 10 13 1016.0 1014.9 0.0
28/04:00am 22.3 17.1 3.4 29 9.2 E 20 22 11 12 1016.0 1014.9 0.0
28/03:30am 22.7 17.1 3.3 28 9.4 E 22 26 12 14 1016.1 1015.0 0.0
28/03:00am 22.1 16.8 2.8 28 9.3 ESE 20 24 11 13 1016.2 1015.1 0.0
28/02:30am 20.0 14.2 -0.1 26 9.0 ESE 20 22 11 12 1016.6 1015.4 0.0
28/02:00am 20.5 15.9 -0.7 24 9.4 SE 13 17 7 9 1016.6 1015.4 0.0
28/01:30am 20.8 16.1 -1.7 22 9.8 SE 13 15 7 8 1016.8 1015.6 0.0
28/01:00am 20.2 16.2 -2.2 22 9.6 E 9 13 5 7 1017.0 1015.8 0.0
28/12:30am 20.7 15.9 -2.4 21 9.9 E 13 15 7 8 1017.1 1015.9 0.0
28/12:00am 21.3 16.6 -1.9 21 10.1 E 13 15 7 8 1017.3 1016.1 0.0
 
Date/Time
CDT
Temp
°C
App
Temp
°C
Dew
Point
Rel
Hum
%
Delta-T
°C
Wind Press
QNH
hPa
Press
MSL
hPa
Rain
since 9 am
mm
Dir
 
Spd
km/h
Gust
km/h
Spd
kts
Gust
kts
27/11:30pm 22.1 17.4 -1.9 20 10.5 E 13 13 7 7 1017.4 1016.2 0.0
27/11:00pm 22.4 16.9 -2.3 19 10.8 ESE 17 19 9 10 1017.4 1016.2 0.0
27/10:30pm 23.1 17.9 -2.5 18 11.2 E 15 15 8 8 1017.5 1016.3 0.0
27/10:00pm 24.6 19.5 -2.0 17 11.9 ESE 15 15 8 8 1017.6 1016.4 0.0
27/09:30pm 25.4 20.6 -2.2 16 12.4 ESE 13 15 7 8 1017.6 1016.4 0.0
27/09:00pm 26.9 21.8 -1.9 15 13.1 ESE 15 17 8 9 1017.5 1016.3 0.0
27/08:30pm 28.1 22.6 -1.9 14 13.8 ESE 17 22 9 12 1017.3 1016.1 0.0
27/08:00pm 28.8 23.0 -1.3 14 14.1 ESE 19 26 10 14 1017.0 1015.8 0.0
27/07:30pm 29.4 23.9 -1.9 13 14.6 ESE 17 24 9 13 1016.9 1015.7 0.0
27/07:00pm 29.9 24.1 -1.5 13 14.8 ESE 19 24 10 13 1016.7 1015.5 0.0
27/06:30pm 30.5 25.9 -1.0 13 15.0 SE 13 24 7 13 1016.3 1015.2 0.0
27/06:00pm 30.5 24.4 -2.1 12 15.2 ESE 20 30 11 16 1016.3 1015.2 0.0
27/05:30pm 31.5 26.5 -1.3 12 15.6 SSE 15 26 8 14 1016.4 1015.3 0.0
27/05:00pm 31.6 26.4 -2.4 11 15.9 SSE 15 24 8 13 1016.7 1015.5 0.0
27/04:30pm 31.3 25.3 -1.5 12 15.6 S 20 28 11 15 1016.6 1015.4 0.0
27/04:00pm 31.0 27.5 -1.7 12 15.5 SSE 7 17 4 9 1016.7 1015.5 0.0
27/03:30pm 32.9 28.3 -1.4 11 16.5 SSE 13 28 7 15 1017.0 1015.8 0.0
27/03:00pm 32.0 25.3 -0.9 12 15.9 ESE 24 37 13 20 1017.3 1016.1 0.0
27/02:30pm 31.6 25.8 -0.1 13 15.4 E 20 32 11 17 1017.6 1016.4 0.0
27/02:00pm 31.2 25.3 -0.5 13 15.3 E 20 33 11 18 1017.8 1016.6 0.0
27/01:30pm 30.8 26.6 -0.8 13 15.1 NE 11 20 6 11 1018.3 1017.1 0.0
27/01:00pm 30.1 24.5 -0.3 14 14.6 ESE 19 28 10 15 1018.7 1017.6 0.0
27/12:30pm 29.4 25.0 0.1 15 14.1 ENE 13 17 7 9 1019.2 1018.1 0.0
27/12:00pm 29.8 23.5 1.3 16 14.0 ESE 24 32 13 17 1019.5 1018.4 0.0
27/11:30am 29.2 22.9 1.7 17 13.6 ESE 24 37 13 20 1019.7 1018.6 0.0
27/11:00am 27.8 20.7 1.3 18 12.9 ESE 28 35 15 19 1020.0 1018.9 0.0
27/10:30am 27.3 20.0 2.4 20 12.3 E 30 39 16 21 1020.1 1019.0 0.0
27/10:00am 26.5 18.6 2.4 21 11.9 ESE 33 41 18 22 1020.1 1019.0 0.0
27/09:30am 25.3 17.7 2.7 23 11.1 ESE 32 41 17 22 1020.3 1019.2 0.0
27/09:00am 24.7 16.5 2.8 24 10.7 ESE 35 46 19 25 1020.3 1019.2 0.0
27/08:30am 23.6 15.3 2.4 25 10.2 ESE 35 46 19 25 1020.2 1019.1 0.0
27/08:00am 23.4 14.7 2.3 25 10.1 E 37 52 20 28 1019.9 1018.8 0.0
27/07:45am 23.1 16.1 2.0 25 10.1 ESE 28 48 15 26 1019.8 1018.7 0.0
27/07:30am 22.0 15.7 1.6 26 9.6 ESE 24 35 13 19 1019.8 1018.7 0.0
27/07:00am 21.2 15.6 1.5 27 9.2 ESE 20 26 11 14 1019.4 1018.3 0.0
27/06:30am 20.7 13.6 1.6 28 8.9 ESE 28 37 15 20 1019.1 1018.0 0.0
27/06:00am 20.4 12.9 1.3 28 8.8 ESE 30 37 16 20 1018.8 1017.7 0.0
27/05:30am 20.5 12.7 1.4 28 8.8 ESE 32 41 17 22 1018.7 1017.6 0.0
27/05:00am 20.6 13.9 1.5 28 8.9 ESE 26 32 14 17 1018.6 1017.4 0.0
27/04:30am 21.0 13.5 1.3 27 9.1 ESE 30 39 16 21 1018.5 1017.3 0.0
27/04:00am 21.4 14.0 1.6 27 9.3 ESE 30 41 16 22 1018.3 1017.1 0.0
27/03:30am 21.6 14.1 1.3 26 9.4 ESE 30 39 16 21 1018.3 1017.1 0.0
27/03:00am 21.2 15.8 1.0 26 9.3 E 19 22 10 12 1018.3 1017.1 0.0
27/02:30am 21.6 15.9 0.8 25 9.6 ESE 20 26 11 14 1018.2 1017.0 0.0
27/02:00am 20.8 17.5 0.1 25 9.3 E 7 13 4 7 1018.4 1017.2 0.0
27/01:30am 21.9 18.2 -0.1 23 10.0 SE 9 13 5 7 1018.5 1017.3 0.0
27/01:00am 21.4 17.2 -1.2 22 10.0 S 11 13 6 7 1019.0 1017.9 0.0
27/12:30am 22.5 18.3 -0.9 21 10.5 SE 11 15 6 8 1019.0 1017.9 0.0
27/12:00am 22.0 17.0 -1.3 21 10.3 ESE 15 17 8 9 1019.0 1017.9 0.0
 
Date/Time
CDT
Temp
°C
App
Temp
°C
Dew
Point
Rel
Hum
%
Delta-T
°C
Wind Press
QNH
hPa
Press
MSL
hPa
Rain
since 9 am
mm
Dir
 
Spd
km/h
Gust
km/h
Spd
kts
Gust
kts
26/11:30pm 21.7 18.2 -1.6 21 10.2 SE 7 11 4 6 1019.0 1017.9 0.0
26/11:00pm 22.2 17.8 -2.5 19 10.7 ESE 11 13 6 7 1018.7 1017.6 0.0
26/10:30pm 23.1 18.4 -1.8 19 11.0 ESE 13 15 7 8 1018.4 1017.2 0.0
26/10:00pm 24.8 19.8 -1.1 18 11.8 ESE 15 19 8 10 1018.2 1017.0 0.0
26/09:30pm 25.5 19.7 -1.3 17 12.2 ESE 19 24 10 13 1017.9 1016.7 0.0
26/09:00pm 26.1 20.1 -1.7 16 12.6 E 20 28 11 15 1017.7 1016.5 0.0
26/08:30pm 26.9 20.5 -1.9 15 13.1 E 22 28 12 15 1017.4 1016.2 0.0
26/08:00pm 27.8 21.0 -2.1 14 13.7 ESE 24 30 13 16 1017.3 1016.1 0.0
26/07:30pm 28.9 22.8 -2.3 13 14.3 ESE 20 26 11 14 1017.1 1015.9 0.0
26/07:00pm 30.2 25.4 -2.3 12 15.1 SE 13 20 7 11 1017.0 1015.8 0.0
26/06:30pm 30.6 25.3 -3.2 11 15.5 SE 15 24 8 13 1016.8 1015.6 0.0
26/06:00pm 30.9 25.3 -3.0 11 15.6 SSW 17 26 9 14 1016.7 1015.5 0.0
26/05:30pm 31.2 25.9 -4.0 10 16.0 SE 15 26 8 14 1016.3 1015.2 0.0
26/05:00pm 31.0 25.0 -2.9 11 15.7 SW 19 26 10 14 1016.3 1015.2 0.0
26/04:30pm 31.3 24.8 -2.6 11 15.8 S 22 35 12 19 1016.7 1015.5 0.0
26/04:00pm 30.5 25.0 -2.1 12 15.2 SSW 17 30 9 16 1016.9 1015.7 0.0
26/03:30pm 30.6 25.1 -2.0 12 15.3 S 17 30 9 16 1017.1 1015.9 0.0
26/03:00pm 30.9 25.7 -3.0 11 15.6 SSE 15 24 8 13 1017.4 1016.2 0.0
26/02:30pm 30.5 24.4 -2.1 12 15.2 WSW 20 28 11 15 1017.9 1016.7 0.0
26/02:00pm 29.7 24.5 -2.7 12 14.9 SSW 15 30 8 16 1018.5 1017.3 0.0
26/01:30pm 29.7 25.4 -1.6 13 14.6 SSW 11 26 6 14 1019.0 1017.9 0.0
26/01:00pm 28.5 22.4 -2.6 13 14.2 SW 20 33 11 18 1019.6 1018.5 0.0

Other Formats:

Comma delimited format used in spreadsheet applications
http://www.bom.gov.au/fwo/IDS60801/IDS60801.94674.axf

JavaScript Object Notation format (JSON) in row-major order
http://www.bom.gov.au/fwo/IDS60801/IDS60801.94674.json